Weather at Campo di Volo Ali Friuli

Public forecast

Using degrees Celsius for public forecast. Weather courtesy of forecast.io.

Closest aviation weather report (METAR) to Campo di Volo Ali Friuli

Closest report is Trieste–Friuli Venezia Giulia Airport, 13.9 nm (25.7 km) S. Retrieved 2021/01/17 04:20 UTC (26 minutes ago):

LIPQ 170420Z AUTO 02003KT 9999 BKN053 BKN150 BKN200 M01/M02 Q1015

Closest aviation forecast (TAF) to Campo di Volo Ali Friuli

Closest forecast is Trieste–Friuli Venezia Giulia Airport, 13.9 nm (25.7 km) S. Retrieved 2021-01-17 00:21 UTC (4 hours ago):

TAF LIPQ 162300Z 1700/1724 VRB05KT 9999 SCT050